sensor_id;sensor_type;location;lat;lon;timestamp;temperature;humidity
7654;DHT22;3869;48.406;10.774;2023-10-13T00:00:34;16.70;99.90
7654;DHT22;3869;48.406;10.774;2023-10-13T00:03:04;16.70;99.90
7654;DHT22;3869;48.406;10.774;2023-10-13T00:05:33;16.70;99.90
7654;DHT22;3869;48.406;10.774;2023-10-13T00:08:03;16.70;99.90
7654;DHT22;3869;48.406;10.774;2023-10-13T00:10:31;16.70;99.90
7654;DHT22;3869;48.406;10.774;2023-10-13T00:13:02;16.70;99.90
7654;DHT22;3869;48.406;10.774;2023-10-13T00:15:39;16.70;99.90
7654;DHT22;3869;48.406;10.774;2023-10-13T00:18:12;16.70;99.90
7654;DHT22;3869;48.406;10.774;2023-10-13T00:20:41;16.70;99.90
7654;DHT22;3869;48.406;10.774;2023-10-13T00:23:15;16.80;99.90
7654;DHT22;3869;48.406;10.774;2023-10-13T00:25:48;16.80;99.90
7654;DHT22;3869;48.406;10.774;2023-10-13T00:28:25;16.80;99.90
7654;DHT22;3869;48.406;10.774;2023-10-13T00:31:02;16.80;99.90
7654;DHT22;3869;48.406;10.774;2023-10-13T00:33:38;16.80;99.90
7654;DHT22;3869;48.406;10.774;2023-10-13T00:36:08;16.70;99.90
7654;DHT22;3869;48.406;10.774;2023-10-13T00:38:43;16.70;99.90
7654;DHT22;3869;48.406;10.774;2023-10-13T00:41:15;16.70;99.90
7654;DHT22;3869;48.406;10.774;2023-10-13T00:43:46;16.70;99.90
7654;DHT22;3869;48.406;10.774;2023-10-13T00:46:32;16.70;99.90
7654;DHT22;3869;48.406;10.774;2023-10-13T00:49:01;16.60;99.90
7654;DHT22;3869;48.406;10.774;2023-10-13T00:51:32;16.60;99.90
7654;DHT22;3869;48.406;10.774;2023-10-13T00:54:03;16.60;99.90
7654;DHT22;3869;48.406;10.774;2023-10-13T00:56:36;16.60;99.90
7654;DHT22;3869;48.406;10.774;2023-10-13T00:59:09;16.60;99.90
7654;DHT22;3869;48.406;10.774;2023-10-13T01:01:40;16.60;99.90
7654;DHT22;3869;48.406;10.774;2023-10-13T01:04:10;16.60;99.90
7654;DHT22;3869;48.406;10.774;2023-10-13T01:06:40;16.60;99.90
7654;DHT22;3869;48.406;10.774;2023-10-13T01:09:09;16.60;99.90
7654;DHT22;3869;48.406;10.774;2023-10-13T01:11:44;16.60;99.90
7654;DHT22;3869;48.406;10.774;2023-10-13T01:14:14;16.60;99.90
7654;DHT22;3869;48.406;10.774;2023-10-13T01:16:44;16.60;99.90
7654;DHT22;3869;48.406;10.774;2023-10-13T01:19:13;16.60;99.90
7654;DHT22;3869;48.406;10.774;2023-10-13T01:21:46;16.60;99.90
7654;DHT22;3869;48.406;10.774;2023-10-13T01:24:15;16.50;99.90
7654;DHT22;3869;48.406;10.774;2023-10-13T01:26:45;16.50;99.90
7654;DHT22;3869;48.406;10.774;2023-10-13T01:29:18;16.50;99.90
7654;DHT22;3869;48.406;10.774;2023-10-13T01:31:46;16.50;99.90
7654;DHT22;3869;48.406;10.774;2023-10-13T01:34:14;16.50;99.90
7654;DHT22;3869;48.406;10.774;2023-10-13T01:36:49;16.50;99.90
7654;DHT22;3869;48.406;10.774;2023-10-13T01:39:20;16.40;99.90
7654;DHT22;3869;48.406;10.774;2023-10-13T01:41:48;16.40;99.90
7654;DHT22;3869;48.406;10.774;2023-10-13T01:44:22;16.40;99.90
7654;DHT22;3869;48.406;10.774;2023-10-13T01:46:51;16.40;99.90
7654;DHT22;3869;48.406;10.774;2023-10-13T01:49:18;16.30;99.90
7654;DHT22;3869;48.406;10.774;2023-10-13T01:51:49;16.30;99.90
7654;DHT22;3869;48.406;10.774;2023-10-13T01:54:16;16.30;99.90
7654;DHT22;3869;48.406;10.774;2023-10-13T01:56:45;16.20;99.90
7654;DHT22;3869;48.406;10.774;2023-10-13T01:59:13;16.20;99.90
7654;DHT22;3869;48.406;10.774;2023-10-13T02:01:42;16.10;99.90
7654;DHT22;3869;48.406;10.774;2023-10-13T02:04:09;16.10;99.90
7654;DHT22;3869;48.406;10.774;2023-10-13T02:06:37;16.10;99.90
7654;DHT22;3869;48.406;10.774;2023-10-13T02:09:06;16.10;99.90
7654;DHT22;3869;48.406;10.774;2023-10-13T02:11:40;16.10;99.90
7654;DHT22;3869;48.406;10.774;2023-10-13T02:14:09;16.00;99.90
7654;DHT22;3869;48.406;10.774;2023-10-13T02:16:39;16.00;99.90
7654;DHT22;3869;48.406;10.774;2023-10-13T02:19:06;15.90;99.90
7654;DHT22;3869;48.406;10.774;2023-10-13T02:21:35;15.80;99.90
7654;DHT22;3869;48.406;10.774;2023-10-13T02:24:06;15.80;99.90
7654;DHT22;3869;48.406;10.774;2023-10-13T02:26:40;15.80;99.90
7654;DHT22;3869;48.406;10.774;2023-10-13T02:29:07;15.80;99.90
7654;DHT22;3869;48.406;10.774;2023-10-13T02:31:42;15.80;99.90
7654;DHT22;3869;48.406;10.774;2023-10-13T02:34:10;15.70;99.90
7654;DHT22;3869;48.406;10.774;2023-10-13T02:36:40;15.70;99.90
7654;DHT22;3869;48.406;10.774;2023-10-13T02:39:16;15.70;99.90
7654;DHT22;3869;48.406;10.774;2023-10-13T02:41:44;15.60;99.90
7654;DHT22;3869;48.406;10.774;2023-10-13T02:44:15;15.50;99.90
7654;DHT22;3869;48.406;10.774;2023-10-13T02:46:55;15.50;99.90
7654;DHT22;3869;48.406;10.774;2023-10-13T02:49:25;15.40;99.90
7654;DHT22;3869;48.406;10.774;2023-10-13T02:51:54;15.40;99.90
7654;DHT22;3869;48.406;10.774;2023-10-13T02:54:22;15.40;99.90
7654;DHT22;3869;48.406;10.774;2023-10-13T02:56:57;15.30;99.90
7654;DHT22;3869;48.406;10.774;2023-10-13T02:59:24;15.20;99.90
7654;DHT22;3869;48.406;10.774;2023-10-13T03:02:07;15.20;99.90
7654;DHT22;3869;48.406;10.774;2023-10-13T03:04:46;15.10;99.90
7654;DHT22;3869;48.406;10.774;2023-10-13T03:07:14;15.10;99.90
7654;DHT22;3869;48.406;10.774;2023-10-13T03:09:43;15.10;99.90
7654;DHT22;3869;48.406;10.774;2023-10-13T03:12:18;15.00;99.90
7654;DHT22;3869;48.406;10.774;2023-10-13T03:14:46;15.00;99.90
7654;DHT22;3869;48.406;10.774;2023-10-13T03:17:16;14.90;99.90
7654;DHT22;3869;48.406;10.774;2023-10-13T03:19:46;14.80;99.90
7654;DHT22;3869;48.406;10.774;2023-10-13T03:22:17;14.80;99.90
7654;DHT22;3869;48.406;10.774;2023-10-13T03:24:45;14.80;99.90
7654;DHT22;3869;48.406;10.774;2023-10-13T03:27:16;14.70;99.90
7654;DHT22;3869;48.406;10.774;2023-10-13T03:29:45;14.70;99.90
7654;DHT22;3869;48.406;10.774;2023-10-13T03:32:16;14.60;99.90
7654;DHT22;3869;48.406;10.774;2023-10-13T03:34:45;14.60;99.90
7654;DHT22;3869;48.406;10.774;2023-10-13T03:37:33;14.60;99.90
7654;DHT22;3869;48.406;10.774;2023-10-13T03:40:07;14.60;99.90
7654;DHT22;3869;48.406;10.774;2023-10-13T03:42:57;14.60;99.90
7654;DHT22;3869;48.406;10.774;2023-10-13T03:45:32;14.50;99.90
7654;DHT22;3869;48.406;10.774;2023-10-13T03:48:10;14.50;99.90
7654;DHT22;3869;48.406;10.774;2023-10-13T03:50:48;14.40;99.90
7654;DHT22;3869;48.406;10.774;2023-10-13T03:53:29;14.40;99.90
7654;DHT22;3869;48.406;10.774;2023-10-13T03:56:00;14.40;99.90
7654;DHT22;3869;48.406;10.774;2023-10-13T03:58:39;14.40;99.90
7654;DHT22;3869;48.406;10.774;2023-10-13T04:01:09;14.40;99.90
7654;DHT22;3869;48.406;10.774;2023-10-13T04:03:41;14.40;99.90
7654;DHT22;3869;48.406;10.774;2023-10-13T04:06:24;14.40;99.90
7654;DHT22;3869;48.406;10.774;2023-10-13T04:09:14;14.30;99.90
7654;DHT22;3869;48.406;10.774;2023-10-13T04:12:01;14.30;99.90
7654;DHT22;3869;48.406;10.774;2023-10-13T04:14:52;14.20;99.90
7654;DHT22;3869;48.406;10.774;2023-10-13T04:17:43;14.20;99.90
7654;DHT22;3869;48.406;10.774;2023-10-13T04:20:14;14.20;99.90
7654;DHT22;3869;48.406;10.774;2023-10-13T04:23:00;14.20;99.90
7654;DHT22;3869;48.406;10.774;2023-10-13T04:25:45;14.10;99.90
7654;DHT22;3869;48.406;10.774;2023-10-13T04:28:30;14.20;99.90
7654;DHT22;3869;48.406;10.774;2023-10-13T04:31:19;14.10;99.90
7654;DHT22;3869;48.406;10.774;2023-10-13T04:34:13;14.10;99.90
7654;DHT22;3869;48.406;10.774;2023-10-13T04:36:48;14.10;99.90
7654;DHT22;3869;48.406;10.774;2023-10-13T04:39:23;14.00;99.90
7654;DHT22;3869;48.406;10.774;2023-10-13T04:42:02;13.90;99.90
7654;DHT22;3869;48.406;10.774;2023-10-13T04:44:40;13.80;99.90
7654;DHT22;3869;48.406;10.774;2023-10-13T04:47:19;13.80;99.90
7654;DHT22;3869;48.406;10.774;2023-10-13T04:49:49;13.70;99.90
7654;DHT22;3869;48.406;10.774;2023-10-13T04:52:20;13.70;99.90
7654;DHT22;3869;48.406;10.774;2023-10-13T04:55:12;13.70;99.90
7654;DHT22;3869;48.406;10.774;2023-10-13T04:58:03;13.60;99.90
7654;DHT22;3869;48.406;10.774;2023-10-13T05:01:03;13.60;99.90
7654;DHT22;3869;48.406;10.774;2023-10-13T05:03:45;13.50;99.90
7654;DHT22;3869;48.406;10.774;2023-10-13T05:06:48;13.40;99.90
7654;DHT22;3869;48.406;10.774;2023-10-13T05:09:34;13.30;99.90
7654;DHT22;3869;48.406;10.774;2023-10-13T05:12:20;13.30;99.90
7654;DHT22;3869;48.406;10.774;2023-10-13T05:15:14;13.30;99.90
7654;DHT22;3869;48.406;10.774;2023-10-13T05:17:59;13.30;99.90
7654;DHT22;3869;48.406;10.774;2023-10-13T05:20:45;13.30;99.90
7654;DHT22;3869;48.406;10.774;2023-10-13T05:23:30;13.20;99.90
7654;DHT22;3869;48.406;10.774;2023-10-13T05:26:17;13.20;99.90
7654;DHT22;3869;48.406;10.774;2023-10-13T05:29:02;13.20;99.90
7654;DHT22;3869;48.406;10.774;2023-10-13T05:31:55;13.10;99.90
7654;DHT22;3869;48.406;10.774;2023-10-13T05:34:40;13.10;99.90
7654;DHT22;3869;48.406;10.774;2023-10-13T05:37:26;13.10;99.90
7654;DHT22;3869;48.406;10.774;2023-10-13T05:40:12;13.10;99.90
7654;DHT22;3869;48.406;10.774;2023-10-13T05:43:13;13.10;99.90
7654;DHT22;3869;48.406;10.774;2023-10-13T05:46:02;13.10;99.90
7654;DHT22;3869;48.406;10.774;2023-10-13T05:48:45;13.00;99.90
7654;DHT22;3869;48.406;10.774;2023-10-13T05:51:41;13.00;99.90
7654;DHT22;3869;48.406;10.774;2023-10-13T05:54:15;13.00;99.90
7654;DHT22;3869;48.406;10.774;2023-10-13T05:57:00;13.00;99.90
7654;DHT22;3869;48.406;10.774;2023-10-13T05:59:46;13.00;99.90
7654;DHT22;3869;48.406;10.774;2023-10-13T06:02:43;13.00;99.90
7654;DHT22;3869;48.406;10.774;2023-10-13T06:05:29;13.10;99.90
7654;DHT22;3869;48.406;10.774;2023-10-13T06:08:16;13.10;99.90
7654;DHT22;3869;48.406;10.774;2023-10-13T06:11:02;13.00;99.90
7654;DHT22;3869;48.406;10.774;2023-10-13T06:13:48;13.00;99.90
7654;DHT22;3869;48.406;10.774;2023-10-13T06:16:33;12.90;99.90
7654;DHT22;3869;48.406;10.774;2023-10-13T06:19:19;12.90;99.90
7654;DHT22;3869;48.406;10.774;2023-10-13T06:22:04;13.00;99.90
7654;DHT22;3869;48.406;10.774;2023-10-13T06:24:51;13.00;99.90
7654;DHT22;3869;48.406;10.774;2023-10-13T06:27:37;13.00;99.90
7654;DHT22;3869;48.406;10.774;2023-10-13T06:30:22;13.40;99.90
7654;DHT22;3869;48.406;10.774;2023-10-13T06:32:50;13.10;99.90
7654;DHT22;3869;48.406;10.774;2023-10-13T06:35:20;13.10;99.90
7654;DHT22;3869;48.406;10.774;2023-10-13T06:37:51;13.20;99.90
7654;DHT22;3869;48.406;10.774;2023-10-13T06:40:20;13.30;99.90
7654;DHT22;3869;48.406;10.774;2023-10-13T06:43:00;13.30;99.90
7654;DHT22;3869;48.406;10.774;2023-10-13T06:45:39;13.40;99.90
7654;DHT22;3869;48.406;10.774;2023-10-13T06:48:08;13.50;99.90
7654;DHT22;3869;48.406;10.774;2023-10-13T06:50:47;13.50;99.90
7654;DHT22;3869;48.406;10.774;2023-10-13T06:53:16;13.60;99.90
7654;DHT22;3869;48.406;10.774;2023-10-13T06:55:45;13.60;99.90
7654;DHT22;3869;48.406;10.774;2023-10-13T06:58:16;13.70;99.90
7654;DHT22;3869;48.406;10.774;2023-10-13T07:00:50;13.80;99.90
7654;DHT22;3869;48.406;10.774;2023-10-13T07:03:24;13.90;99.90
7654;DHT22;3869;48.406;10.774;2023-10-13T07:05:53;14.00;99.90
7654;DHT22;3869;48.406;10.774;2023-10-13T07:08:21;14.00;99.90
7654;DHT22;3869;48.406;10.774;2023-10-13T07:10:52;14.10;99.90
7654;DHT22;3869;48.406;10.774;2023-10-13T07:13:32;14.10;99.90
7654;DHT22;3869;48.406;10.774;2023-10-13T07:16:04;14.20;99.90
7654;DHT22;3869;48.406;10.774;2023-10-13T07:18:54;14.20;99.90
7654;DHT22;3869;48.406;10.774;2023-10-13T07:21:22;14.40;99.90
7654;DHT22;3869;48.406;10.774;2023-10-13T07:23:57;14.40;99.90
7654;DHT22;3869;48.406;10.774;2023-10-13T07:26:37;14.50;99.90
7654;DHT22;3869;48.406;10.774;2023-10-13T07:29:11;14.50;99.90
7654;DHT22;3869;48.406;10.774;2023-10-13T07:31:39;14.60;99.90
7654;DHT22;3869;48.406;10.774;2023-10-13T07:34:12;14.70;99.90
7654;DHT22;3869;48.406;10.774;2023-10-13T07:36:53;14.80;99.90
7654;DHT22;3869;48.406;10.774;2023-10-13T07:39:28;14.90;99.90
7654;DHT22;3869;48.406;10.774;2023-10-13T07:42:03;14.90;99.90
7654;DHT22;3869;48.406;10.774;2023-10-13T07:44:36;15.00;99.90
7654;DHT22;3869;48.406;10.774;2023-10-13T07:47:12;15.10;99.90
7654;DHT22;3869;48.406;10.774;2023-10-13T07:49:42;15.20;99.90
7654;DHT22;3869;48.406;10.774;2023-10-13T07:52:12;15.30;99.90
7654;DHT22;3869;48.406;10.774;2023-10-13T07:54:54;15.40;99.90
7654;DHT22;3869;48.406;10.774;2023-10-13T07:57:40;15.60;99.90
7654;DHT22;3869;48.406;10.774;2023-10-13T08:00:22;15.60;99.90
7654;DHT22;3869;48.406;10.774;2023-10-13T08:02:57;15.80;99.90
7654;DHT22;3869;48.406;10.774;2023-10-13T08:05:36;15.90;99.90
7654;DHT22;3869;48.406;10.774;2023-10-13T08:08:23;16.00;99.90
7654;DHT22;3869;48.406;10.774;2023-10-13T08:10:52;16.10;99.90
7654;DHT22;3869;48.406;10.774;2023-10-13T08:13:25;16.20;99.90
7654;DHT22;3869;48.406;10.774;2023-10-13T08:15:53;16.30;99.90
7654;DHT22;3869;48.406;10.774;2023-10-13T08:18:21;16.40;99.90
7654;DHT22;3869;48.406;10.774;2023-10-13T08:20:57;16.50;99.90
7654;DHT22;3869;48.406;10.774;2023-10-13T08:23:30;16.60;99.90
7654;DHT22;3869;48.406;10.774;2023-10-13T08:26:12;16.80;99.90
7654;DHT22;3869;48.406;10.774;2023-10-13T08:28:59;16.90;99.90
7654;DHT22;3869;48.406;10.774;2023-10-13T08:31:50;17.00;99.90
7654;DHT22;3869;48.406;10.774;2023-10-13T08:34:38;17.10;99.90
7654;DHT22;3869;48.406;10.774;2023-10-13T08:37:27;17.20;99.90
7654;DHT22;3869;48.406;10.774;2023-10-13T08:39:57;17.30;99.90
7654;DHT22;3869;48.406;10.774;2023-10-13T08:42:56;17.40;99.90
7654;DHT22;3869;48.406;10.774;2023-10-13T08:45:40;17.50;99.90
7654;DHT22;3869;48.406;10.774;2023-10-13T08:48:21;17.60;99.90
7654;DHT22;3869;48.406;10.774;2023-10-13T08:50:58;17.70;99.90
7654;DHT22;3869;48.406;10.774;2023-10-13T08:53:37;17.80;99.90
7654;DHT22;3869;48.406;10.774;2023-10-13T08:56:19;17.80;99.90
7654;DHT22;3869;48.406;10.774;2023-10-13T08:59:00;17.90;99.90
7654;DHT22;3869;48.406;10.774;2023-10-13T09:01:36;18.00;99.90
7654;DHT22;3869;48.406;10.774;2023-10-13T09:04:13;18.10;99.90
7654;DHT22;3869;48.406;10.774;2023-10-13T09:06:54;18.10;99.90
7654;DHT22;3869;48.406;10.774;2023-10-13T09:09:45;18.20;99.90
7654;DHT22;3869;48.406;10.774;2023-10-13T09:12:27;18.30;99.90
7654;DHT22;3869;48.406;10.774;2023-10-13T09:15:07;18.40;99.90
7654;DHT22;3869;48.406;10.774;2023-10-13T09:17:48;18.50;99.90
7654;DHT22;3869;48.406;10.774;2023-10-13T09:20:28;18.60;99.90
7654;DHT22;3869;48.406;10.774;2023-10-13T09:23:10;18.60;99.90
7654;DHT22;3869;48.406;10.774;2023-10-13T09:25:40;18.70;99.90
7654;DHT22;3869;48.406;10.774;2023-10-13T09:28:28;18.80;99.90
7654;DHT22;3869;48.406;10.774;2023-10-13T09:30:56;18.90;99.90
7654;DHT22;3869;48.406;10.774;2023-10-13T09:33:26;19.00;99.90
7654;DHT22;3869;48.406;10.774;2023-10-13T09:35:59;19.10;99.90
7654;DHT22;3869;48.406;10.774;2023-10-13T09:38:32;19.20;99.90
7654;DHT22;3869;48.406;10.774;2023-10-13T09:41:03;19.30;99.90
7654;DHT22;3869;48.406;10.774;2023-10-13T09:43:44;19.40;99.90
7654;DHT22;3869;48.406;10.774;2023-10-13T09:46:18;19.50;99.90
7654;DHT22;3869;48.406;10.774;2023-10-13T09:48:47;19.60;99.80
7654;DHT22;3869;48.406;10.774;2023-10-13T09:51:31;19.70;99.50
7654;DHT22;3869;48.406;10.774;2023-10-13T09:54:10;19.80;99.10
7654;DHT22;3869;48.406;10.774;2023-10-13T09:57:08;19.80;99.10
7654;DHT22;3869;48.406;10.774;2023-10-13T09:59:42;19.90;98.60
7654;DHT22;3869;48.406;10.774;2023-10-13T10:02:18;20.00;98.80
7654;DHT22;3869;48.406;10.774;2023-10-13T10:04:54;20.10;98.80
7654;DHT22;3869;48.406;10.774;2023-10-13T10:07:39;20.20;98.70
7654;DHT22;3869;48.406;10.774;2023-10-13T10:10:08;20.30;98.50
7654;DHT22;3869;48.406;10.774;2023-10-13T10:12:41;20.40;98.70
7654;DHT22;3869;48.406;10.774;2023-10-13T10:15:24;20.40;98.50
7654;DHT22;3869;48.406;10.774;2023-10-13T10:17:57;20.50;98.30
7654;DHT22;3869;48.406;10.774;2023-10-13T10:20:32;20.60;98.00
7654;DHT22;3869;48.406;10.774;2023-10-13T10:23:06;20.70;98.30
7654;DHT22;3869;48.406;10.774;2023-10-13T10:25:36;20.80;98.00
7654;DHT22;3869;48.406;10.774;2023-10-13T10:28:06;20.80;98.00
7654;DHT22;3869;48.406;10.774;2023-10-13T10:30:36;20.90;98.00
7654;DHT22;3869;48.406;10.774;2023-10-13T10:33:06;21.00;97.80
7654;DHT22;3869;48.406;10.774;2023-10-13T10:35:41;21.10;97.70
7654;DHT22;3869;48.406;10.774;2023-10-13T10:38:10;21.20;97.30
7654;DHT22;3869;48.406;10.774;2023-10-13T10:40:54;21.20;97.10
7654;DHT22;3869;48.406;10.774;2023-10-13T10:43:26;21.30;96.70
7654;DHT22;3869;48.406;10.774;2023-10-13T10:46:00;21.40;96.20
7654;DHT22;3869;48.406;10.774;2023-10-13T10:48:28;21.50;95.90
7654;DHT22;3869;48.406;10.774;2023-10-13T10:51:06;21.60;95.90
7654;DHT22;3869;48.406;10.774;2023-10-13T10:53:41;21.70;95.40
7654;DHT22;3869;48.406;10.774;2023-10-13T10:56:15;21.70;94.80
7654;DHT22;3869;48.406;10.774;2023-10-13T10:58:54;21.80;94.80
7654;DHT22;3869;48.406;10.774;2023-10-13T11:01:23;21.90;94.20
7654;DHT22;3869;48.406;10.774;2023-10-13T11:03:56;22.00;93.60
7654;DHT22;3869;48.406;10.774;2023-10-13T11:06:36;22.10;93.40
7654;DHT22;3869;48.406;10.774;2023-10-13T11:09:09;22.20;93.50
7654;DHT22;3869;48.406;10.774;2023-10-13T11:11:47;22.40;93.60
7654;DHT22;3869;48.406;10.774;2023-10-13T11:14:23;22.40;93.40
7654;DHT22;3869;48.406;10.774;2023-10-13T11:16:52;22.50;93.20
7654;DHT22;3869;48.406;10.774;2023-10-13T11:19:22;22.60;92.40
7654;DHT22;3869;48.406;10.774;2023-10-13T11:22:11;22.60;93.00
7654;DHT22;3869;48.406;10.774;2023-10-13T11:24:56;22.70;92.60
7654;DHT22;3869;48.406;10.774;2023-10-13T11:27:29;22.80;92.40
7654;DHT22;3869;48.406;10.774;2023-10-13T11:30:22;22.90;92.30
7654;DHT22;3869;48.406;10.774;2023-10-13T11:32:58;22.90;91.80
7654;DHT22;3869;48.406;10.774;2023-10-13T11:35:26;23.00;91.80
7654;DHT22;3869;48.406;10.774;2023-10-13T11:38:16;23.10;92.00
7654;DHT22;3869;48.406;10.774;2023-10-13T11:40:56;23.20;92.50
7654;DHT22;3869;48.406;10.774;2023-10-13T11:43:43;23.30;92.70
7654;DHT22;3869;48.406;10.774;2023-10-13T11:46:28;23.40;92.00
7654;DHT22;3869;48.406;10.774;2023-10-13T11:49:13;23.40;91.10
7654;DHT22;3869;48.406;10.774;2023-10-13T11:51:59;23.40;90.90
7654;DHT22;3869;48.406;10.774;2023-10-13T11:54:44;23.60;91.00
7654;DHT22;3869;48.406;10.774;2023-10-13T11:57:14;23.60;90.90
7654;DHT22;3869;48.406;10.774;2023-10-13T11:59:46;23.60;91.50
7654;DHT22;3869;48.406;10.774;2023-10-13T12:02:22;23.70;91.50
7654;DHT22;3869;48.406;10.774;2023-10-13T12:05:08;23.70;91.10
7654;DHT22;3869;48.406;10.774;2023-10-13T12:07:40;23.90;91.70
7654;DHT22;3869;48.406;10.774;2023-10-13T12:10:16;23.90;91.50
7654;DHT22;3869;48.406;10.774;2023-10-13T12:13:01;23.90;90.10
7654;DHT22;3869;48.406;10.774;2023-10-13T12:15:36;24.00;90.00
7654;DHT22;3869;48.406;10.774;2023-10-13T12:18:16;24.10;90.20
7654;DHT22;3869;48.406;10.774;2023-10-13T12:20:46;24.10;89.40
7654;DHT22;3869;48.406;10.774;2023-10-13T12:23:15;24.20;88.40
7654;DHT22;3869;48.406;10.774;2023-10-13T12:25:45;24.30;86.30
7654;DHT22;3869;48.406;10.774;2023-10-13T12:28:24;24.40;88.50
7654;DHT22;3869;48.406;10.774;2023-10-13T12:30:55;24.50;87.30
7654;DHT22;3869;48.406;10.774;2023-10-13T12:33:25;24.60;86.60
7654;DHT22;3869;48.406;10.774;2023-10-13T12:35:57;24.70;86.80
7654;DHT22;3869;48.406;10.774;2023-10-13T12:38:34;24.80;87.60
7654;DHT22;3869;48.406;10.774;2023-10-13T12:41:20;24.80;87.80
7654;DHT22;3869;48.406;10.774;2023-10-13T12:44:06;24.90;87.10
7654;DHT22;3869;48.406;10.774;2023-10-13T12:46:52;24.90;85.40
7654;DHT22;3869;48.406;10.774;2023-10-13T12:49:39;25.00;86.70
7654;DHT22;3869;48.406;10.774;2023-10-13T12:52:16;25.10;86.90
7654;DHT22;3869;48.406;10.774;2023-10-13T12:54:47;25.20;86.40
7654;DHT22;3869;48.406;10.774;2023-10-13T12:57:27;25.30;86.80
7654;DHT22;3869;48.406;10.774;2023-10-13T12:59:57;25.30;85.10
7654;DHT22;3869;48.406;10.774;2023-10-13T13:02:26;25.30;84.60
7654;DHT22;3869;48.406;10.774;2023-10-13T13:04:56;25.40;84.10
7654;DHT22;3869;48.406;10.774;2023-10-13T13:07:33;25.40;85.40
7654;DHT22;3869;48.406;10.774;2023-10-13T13:10:10;25.40;85.50
7654;DHT22;3869;48.406;10.774;2023-10-13T13:12:42;25.40;86.80
7654;DHT22;3869;48.406;10.774;2023-10-13T13:15:10;25.40;84.70
7654;DHT22;3869;48.406;10.774;2023-10-13T13:17:39;25.40;86.20
7654;DHT22;3869;48.406;10.774;2023-10-13T13:20:08;25.30;86.80
7654;DHT22;3869;48.406;10.774;2023-10-13T13:22:53;25.30;86.60
7654;DHT22;3869;48.406;10.774;2023-10-13T13:25:22;25.30;86.70
7654;DHT22;3869;48.406;10.774;2023-10-13T13:27:59;25.20;85.20
7654;DHT22;3869;48.406;10.774;2023-10-13T13:30:32;25.10;85.70
7654;DHT22;3869;48.406;10.774;2023-10-13T13:33:02;25.20;86.50
7654;DHT22;3869;48.406;10.774;2023-10-13T13:35:38;25.10;85.70
7654;DHT22;3869;48.406;10.774;2023-10-13T13:38:07;25.10;89.00
7654;DHT22;3869;48.406;10.774;2023-10-13T13:40:43;25.00;86.80
7654;DHT22;3869;48.406;10.774;2023-10-13T13:43:17;25.00;86.50
7654;DHT22;3869;48.406;10.774;2023-10-13T13:46:04;25.00;87.20
7654;DHT22;3869;48.406;10.774;2023-10-13T13:48:36;25.00;88.50
7654;DHT22;3869;48.406;10.774;2023-10-13T13:51:05;24.90;87.70
7654;DHT22;3869;48.406;10.774;2023-10-13T13:53:41;25.00;87.90
7654;DHT22;3869;48.406;10.774;2023-10-13T13:56:12;25.00;88.20
7654;DHT22;3869;48.406;10.774;2023-10-13T13:58:44;24.90;88.40
7654;DHT22;3869;48.406;10.774;2023-10-13T14:01:12;24.90;88.90
7654;DHT22;3869;48.406;10.774;2023-10-13T14:03:42;24.80;88.80
7654;DHT22;3869;48.406;10.774;2023-10-13T14:06:13;24.90;89.20
7654;DHT22;3869;48.406;10.774;2023-10-13T14:08:45;24.80;89.00
7654;DHT22;3869;48.406;10.774;2023-10-13T14:11:15;24.80;88.20
7654;DHT22;3869;48.406;10.774;2023-10-13T14:14:13;24.80;89.90
7654;DHT22;3869;48.406;10.774;2023-10-13T14:16:55;24.80;89.60
7654;DHT22;3869;48.406;10.774;2023-10-13T14:19:33;24.70;90.10
7654;DHT22;3869;48.406;10.774;2023-10-13T14:22:07;24.60;90.70
7654;DHT22;3869;48.406;10.774;2023-10-13T14:24:39;24.60;90.10
7654;DHT22;3869;48.406;10.774;2023-10-13T14:27:14;24.50;90.30
7654;DHT22;3869;48.406;10.774;2023-10-13T14:29:47;24.50;90.70
7654;DHT22;3869;48.406;10.774;2023-10-13T14:32:20;24.50;90.60
7654;DHT22;3869;48.406;10.774;2023-10-13T14:34:52;24.50;90.40
7654;DHT22;3869;48.406;10.774;2023-10-13T14:37:23;24.40;90.40
7654;DHT22;3869;48.406;10.774;2023-10-13T14:39:57;24.30;90.30
7654;DHT22;3869;48.406;10.774;2023-10-13T14:42:27;24.30;90.30
7654;DHT22;3869;48.406;10.774;2023-10-13T14:44:57;24.20;88.60
7654;DHT22;3869;48.406;10.774;2023-10-13T14:47:25;24.20;88.80
7654;DHT22;3869;48.406;10.774;2023-10-13T14:49:53;24.20;88.90
7654;DHT22;3869;48.406;10.774;2023-10-13T14:52:22;24.10;88.60
7654;DHT22;3869;48.406;10.774;2023-10-13T14:54:50;24.10;90.30
7654;DHT22;3869;48.406;10.774;2023-10-13T14:57:22;24.10;90.00
7654;DHT22;3869;48.406;10.774;2023-10-13T14:59:52;24.00;90.00
7654;DHT22;3869;48.406;10.774;2023-10-13T15:02:22;24.00;90.00
7654;DHT22;3869;48.406;10.774;2023-10-13T15:04:50;23.90;90.10
7654;DHT22;3869;48.406;10.774;2023-10-13T15:07:18;23.90;90.30
7654;DHT22;3869;48.406;10.774;2023-10-13T15:09:48;23.80;90.20
7654;DHT22;3869;48.406;10.774;2023-10-13T15:12:16;23.80;90.80
7654;DHT22;3869;48.406;10.774;2023-10-13T15:14:52;23.80;91.00
7654;DHT22;3869;48.406;10.774;2023-10-13T15:17:24;23.70;91.20
7654;DHT22;3869;48.406;10.774;2023-10-13T15:19:55;23.60;91.60
7654;DHT22;3869;48.406;10.774;2023-10-13T15:22:23;23.60;92.40
7654;DHT22;3869;48.406;10.774;2023-10-13T15:24:55;23.50;93.40
7654;DHT22;3869;48.406;10.774;2023-10-13T15:27:36;23.40;92.80
7654;DHT22;3869;48.406;10.774;2023-10-13T15:30:09;23.20;92.40
7654;DHT22;3869;48.406;10.774;2023-10-13T15:32:48;23.20;92.60
7654;DHT22;3869;48.406;10.774;2023-10-13T15:35:18;23.00;92.90
7654;DHT22;3869;48.406;10.774;2023-10-13T15:37:46;23.00;93.50
7654;DHT22;3869;48.406;10.774;2023-10-13T15:40:15;22.90;93.70
7654;DHT22;3869;48.406;10.774;2023-10-13T15:42:43;22.90;94.00
7654;DHT22;3869;48.406;10.774;2023-10-13T15:45:13;22.80;94.30
7654;DHT22;3869;48.406;10.774;2023-10-13T15:47:50;22.70;94.60
7654;DHT22;3869;48.406;10.774;2023-10-13T15:50:21;22.60;95.30
7654;DHT22;3869;48.406;10.774;2023-10-13T15:52:49;22.50;95.50
7654;DHT22;3869;48.406;10.774;2023-10-13T15:55:17;22.40;95.70
7654;DHT22;3869;48.406;10.774;2023-10-13T15:57:45;22.40;96.10
7654;DHT22;3869;48.406;10.774;2023-10-13T16:00:20;22.30;96.40
7654;DHT22;3869;48.406;10.774;2023-10-13T16:02:54;22.10;96.60
7654;DHT22;3869;48.406;10.774;2023-10-13T16:05:29;22.00;96.90
7654;DHT22;3869;48.406;10.774;2023-10-13T16:08:02;21.90;97.10
7654;DHT22;3869;48.406;10.774;2023-10-13T16:10:33;21.70;97.30
7654;DHT22;3869;48.406;10.774;2023-10-13T16:13:02;21.60;97.50
7654;DHT22;3869;48.406;10.774;2023-10-13T16:15:35;21.50;97.80
7654;DHT22;3869;48.406;10.774;2023-10-13T16:18:09;21.40;98.40
7654;DHT22;3869;48.406;10.774;2023-10-13T16:20:37;21.20;98.40
7654;DHT22;3869;48.406;10.774;2023-10-13T16:23:06;21.10;98.60
7654;DHT22;3869;48.406;10.774;2023-10-13T16:25:35;21.00;98.90
7654;DHT22;3869;48.406;10.774;2023-10-13T16:28:04;20.90;99.20
7654;DHT22;3869;48.406;10.774;2023-10-13T16:30:32;20.80;99.40
7654;DHT22;3869;48.406;10.774;2023-10-13T16:33:00;20.60;99.60
7654;DHT22;3869;48.406;10.774;2023-10-13T16:35:30;20.50;99.90
7654;DHT22;3869;48.406;10.774;2023-10-13T16:38:00;20.40;99.90